sensor_id;sensor_type;location;lat;lon;timestamp;P1;durP1;ratioP1;P2;durP2;ratioP2
58242;SDS011;50118;53.232;8.252;2022-11-15T00:01:24;30.27;;;17.20;;
58242;SDS011;50118;53.232;8.252;2022-11-15T00:03:50;30.20;;;17.55;;
58242;SDS011;50118;53.232;8.252;2022-11-15T00:06:16;32.55;;;17.75;;
58242;SDS011;50118;53.232;8.252;2022-11-15T00:08:41;31.17;;;17.27;;
58242;SDS011;50118;53.232;8.252;2022-11-15T00:11:08;29.08;;;16.38;;
58242;SDS011;50118;53.232;8.252;2022-11-15T00:13:35;31.23;;;18.20;;
58242;SDS011;50118;53.232;8.252;2022-11-15T00:16:01;33.03;;;18.30;;
58242;SDS011;50118;53.232;8.252;2022-11-15T00:18:28;31.35;;;17.85;;
58242;SDS011;50118;53.232;8.252;2022-11-15T00:20:55;29.15;;;16.73;;
58242;SDS011;50118;53.232;8.252;2022-11-15T00:23:21;28.00;;;16.35;;
58242;SDS011;50118;53.232;8.252;2022-11-15T00:25:47;28.45;;;16.35;;
58242;SDS011;50118;53.232;8.252;2022-11-15T00:28:12;30.50;;;17.17;;
58242;SDS011;50118;53.232;8.252;2022-11-15T00:30:37;27.40;;;16.58;;
58242;SDS011;50118;53.232;8.252;2022-11-15T00:33:03;30.05;;;17.05;;
58242;SDS011;50118;53.232;8.252;2022-11-15T00:35:33;30.60;;;17.90;;
58242;SDS011;50118;53.232;8.252;2022-11-15T00:38:00;29.77;;;16.95;;
58242;SDS011;50118;53.232;8.252;2022-11-15T00:40:26;30.73;;;16.75;;
58242;SDS011;50118;53.232;8.252;2022-11-15T00:42:51;30.83;;;17.58;;
58242;SDS011;50118;53.232;8.252;2022-11-15T00:45:17;28.65;;;16.73;;
58242;SDS011;50118;53.232;8.252;2022-11-15T00:47:45;29.65;;;16.83;;
58242;SDS011;50118;53.232;8.252;2022-11-15T00:50:11;29.85;;;16.00;;
58242;SDS011;50118;53.232;8.252;2022-11-15T00:52:37;31.25;;;16.70;;
58242;SDS011;50118;53.232;8.252;2022-11-15T00:55:02;28.17;;;16.55;;
58242;SDS011;50118;53.232;8.252;2022-11-15T00:57:28;31.13;;;16.83;;
58242;SDS011;50118;53.232;8.252;2022-11-15T00:59:53;26.77;;;16.17;;
58242;SDS011;50118;53.232;8.252;2022-11-15T01:02:19;28.15;;;15.18;;
58242;SDS011;50118;53.232;8.252;2022-11-15T01:04:44;31.33;;;16.48;;
58242;SDS011;50118;53.232;8.252;2022-11-15T01:07:10;27.42;;;15.63;;
58242;SDS011;50118;53.232;8.252;2022-11-15T01:09:35;28.67;;;16.65;;
58242;SDS011;50118;53.232;8.252;2022-11-15T01:12:01;27.55;;;15.45;;
58242;SDS011;50118;53.232;8.252;2022-11-15T01:14:26;27.50;;;16.67;;
58242;SDS011;50118;53.232;8.252;2022-11-15T01:16:51;26.55;;;15.90;;
58242;SDS011;50118;53.232;8.252;2022-11-15T01:19:17;26.50;;;15.85;;
58242;SDS011;50118;53.232;8.252;2022-11-15T01:21:42;26.83;;;16.13;;
58242;SDS011;50118;53.232;8.252;2022-11-15T01:24:08;28.35;;;16.23;;
58242;SDS011;50118;53.232;8.252;2022-11-15T01:26:37;30.77;;;16.25;;
58242;SDS011;50118;53.232;8.252;2022-11-15T01:29:02;26.55;;;14.40;;
58242;SDS011;50118;53.232;8.252;2022-11-15T01:31:28;26.00;;;14.93;;
58242;SDS011;50118;53.232;8.252;2022-11-15T01:33:53;25.88;;;15.65;;
58242;SDS011;50118;53.232;8.252;2022-11-15T01:36:20;26.95;;;15.57;;
58242;SDS011;50118;53.232;8.252;2022-11-15T01:38:46;27.48;;;17.35;;
58242;SDS011;50118;53.232;8.252;2022-11-15T01:41:18;30.33;;;17.88;;
58242;SDS011;50118;53.232;8.252;2022-11-15T01:43:52;29.10;;;17.35;;
58242;SDS011;50118;53.232;8.252;2022-11-15T01:49:00;29.52;;;15.90;;
58242;SDS011;50118;53.232;8.252;2022-11-15T01:51:30;26.98;;;15.82;;
58242;SDS011;50118;53.232;8.252;2022-11-15T01:53:59;27.85;;;15.75;;
58242;SDS011;50118;53.232;8.252;2022-11-15T01:56:36;26.33;;;15.90;;
58242;SDS011;50118;53.232;8.252;2022-11-15T01:59:08;26.67;;;15.85;;
58242;SDS011;50118;53.232;8.252;2022-11-15T02:01:35;30.23;;;16.90;;
58242;SDS011;50118;53.232;8.252;2022-11-15T02:04:03;26.73;;;16.20;;
58242;SDS011;50118;53.232;8.252;2022-11-15T02:06:40;30.20;;;16.67;;
58242;SDS011;50118;53.232;8.252;2022-11-15T02:09:06;28.10;;;15.90;;
58242;SDS011;50118;53.232;8.252;2022-11-15T02:11:31;30.83;;;17.00;;
58242;SDS011;50118;53.232;8.252;2022-11-15T02:13:57;30.05;;;17.05;;
58242;SDS011;50118;53.232;8.252;2022-11-15T02:16:35;29.40;;;17.00;;
58242;SDS011;50118;53.232;8.252;2022-11-15T02:21:56;32.13;;;17.63;;
58242;SDS011;50118;53.232;8.252;2022-11-15T02:36:01;32.70;;;17.48;;
58242;SDS011;50118;53.232;8.252;2022-11-15T02:41:29;32.33;;;17.92;;
58242;SDS011;50118;53.232;8.252;2022-11-15T02:44:01;28.38;;;16.85;;
58242;SDS011;50118;53.232;8.252;2022-11-15T02:49:34;29.85;;;16.52;;
58242;SDS011;50118;53.232;8.252;2022-11-15T02:52:00;30.58;;;15.60;;
58242;SDS011;50118;53.232;8.252;2022-11-15T02:54:26;28.02;;;16.92;;
58242;SDS011;50118;53.232;8.252;2022-11-15T02:56:56;30.23;;;17.15;;
58242;SDS011;50118;53.232;8.252;2022-11-15T03:10:06;25.98;;;15.80;;
58242;SDS011;50118;53.232;8.252;2022-11-15T03:13:03;27.23;;;15.60;;
58242;SDS011;50118;53.232;8.252;2022-11-15T03:18:52;28.20;;;16.17;;
58242;SDS011;50118;53.232;8.252;2022-11-15T03:21:23;25.17;;;15.23;;
58242;SDS011;50118;53.232;8.252;2022-11-15T03:23:50;26.80;;;15.60;;
58242;SDS011;50118;53.232;8.252;2022-11-15T03:26:18;24.52;;;14.98;;
58242;SDS011;50118;53.232;8.252;2022-11-15T03:28:54;26.42;;;15.85;;
58242;SDS011;50118;53.232;8.252;2022-11-15T03:31:22;27.27;;;15.57;;
58242;SDS011;50118;53.232;8.252;2022-11-15T03:34:11;25.13;;;14.25;;
58242;SDS011;50118;53.232;8.252;2022-11-15T03:36:51;24.92;;;14.77;;
58242;SDS011;50118;53.232;8.252;2022-11-15T03:39:17;25.52;;;14.32;;
58242;SDS011;50118;53.232;8.252;2022-11-15T03:41:46;24.55;;;14.85;;
58242;SDS011;50118;53.232;8.252;2022-11-15T03:49:49;24.73;;;14.65;;
58242;SDS011;50118;53.232;8.252;2022-11-15T03:52:23;23.20;;;13.55;;
58242;SDS011;50118;53.232;8.252;2022-11-15T03:54:55;23.85;;;15.15;;
58242;SDS011;50118;53.232;8.252;2022-11-15T03:57:21;27.15;;;15.25;;
58242;SDS011;50118;53.232;8.252;2022-11-15T03:59:47;24.20;;;14.30;;
58242;SDS011;50118;53.232;8.252;2022-11-15T04:02:13;30.38;;;15.38;;
58242;SDS011;50118;53.232;8.252;2022-11-15T04:04:39;26.17;;;15.05;;
58242;SDS011;50118;53.232;8.252;2022-11-15T04:07:04;25.63;;;15.25;;
58242;SDS011;50118;53.232;8.252;2022-11-15T04:09:30;25.67;;;14.55;;
58242;SDS011;50118;53.232;8.252;2022-11-15T04:11:55;27.58;;;15.05;;
58242;SDS011;50118;53.232;8.252;2022-11-15T04:14:21;24.50;;;14.63;;
58242;SDS011;50118;53.232;8.252;2022-11-15T04:16:46;26.08;;;13.90;;
58242;SDS011;50118;53.232;8.252;2022-11-15T04:19:12;26.42;;;14.48;;
58242;SDS011;50118;53.232;8.252;2022-11-15T04:21:55;26.83;;;14.77;;
58242;SDS011;50118;53.232;8.252;2022-11-15T04:24:39;23.98;;;13.52;;
58242;SDS011;50118;53.232;8.252;2022-11-15T04:27:05;24.15;;;13.68;;
58242;SDS011;50118;53.232;8.252;2022-11-15T04:29:30;24.83;;;14.18;;
58242;SDS011;50118;53.232;8.252;2022-11-15T04:32:05;23.00;;;13.65;;
58242;SDS011;50118;53.232;8.252;2022-11-15T04:34:31;24.70;;;13.38;;
58242;SDS011;50118;53.232;8.252;2022-11-15T04:36:57;27.20;;;14.68;;
58242;SDS011;50118;53.232;8.252;2022-11-15T04:39:39;24.27;;;12.73;;
58242;SDS011;50118;53.232;8.252;2022-11-15T04:42:05;23.45;;;13.55;;
58242;SDS011;50118;53.232;8.252;2022-11-15T04:44:30;22.05;;;12.82;;
58242;SDS011;50118;53.232;8.252;2022-11-15T04:46:56;27.35;;;14.15;;
58242;SDS011;50118;53.232;8.252;2022-11-15T04:49:21;24.85;;;13.13;;
58242;SDS011;50118;53.232;8.252;2022-11-15T04:51:47;23.33;;;13.27;;
58242;SDS011;50118;53.232;8.252;2022-11-15T04:54:13;22.90;;;13.35;;
58242;SDS011;50118;53.232;8.252;2022-11-15T04:56:38;25.80;;;14.35;;
58242;SDS011;50118;53.232;8.252;2022-11-15T04:59:03;23.08;;;13.65;;
58242;SDS011;50118;53.232;8.252;2022-11-15T05:01:29;23.60;;;13.55;;
58242;SDS011;50118;53.232;8.252;2022-11-15T05:03:54;24.35;;;12.93;;
58242;SDS011;50118;53.232;8.252;2022-11-15T05:06:41;24.80;;;12.98;;
58242;SDS011;50118;53.232;8.252;2022-11-15T05:09:07;23.60;;;13.18;;
58242;SDS011;50118;53.232;8.252;2022-11-15T05:11:32;21.45;;;11.77;;
58242;SDS011;50118;53.232;8.252;2022-11-15T05:13:58;21.42;;;12.50;;
58242;SDS011;50118;53.232;8.252;2022-11-15T05:16:23;22.58;;;12.27;;
58242;SDS011;50118;53.232;8.252;2022-11-15T05:18:52;22.20;;;12.93;;
58242;SDS011;50118;53.232;8.252;2022-11-15T05:21:18;20.80;;;11.02;;
58242;SDS011;50118;53.232;8.252;2022-11-15T05:23:44;22.05;;;12.60;;
58242;SDS011;50118;53.232;8.252;2022-11-15T05:26:09;23.02;;;13.27;;
58242;SDS011;50118;53.232;8.252;2022-11-15T05:28:36;23.60;;;11.88;;
58242;SDS011;50118;53.232;8.252;2022-11-15T05:31:04;22.48;;;11.85;;
58242;SDS011;50118;53.232;8.252;2022-11-15T05:33:30;21.98;;;11.63;;
58242;SDS011;50118;53.232;8.252;2022-11-15T05:38:37;21.65;;;12.00;;
58242;SDS011;50118;53.232;8.252;2022-11-15T05:41:03;23.33;;;12.48;;
58242;SDS011;50118;53.232;8.252;2022-11-15T05:43:30;23.02;;;12.23;;
58242;SDS011;50118;53.232;8.252;2022-11-15T05:45:59;24.40;;;12.27;;
58242;SDS011;50118;53.232;8.252;2022-11-15T05:48:26;19.95;;;11.18;;
58242;SDS011;50118;53.232;8.252;2022-11-15T05:50:52;19.17;;;11.15;;
58242;SDS011;50118;53.232;8.252;2022-11-15T05:53:18;21.55;;;11.43;;
58242;SDS011;50118;53.232;8.252;2022-11-15T05:55:46;22.30;;;12.07;;
58242;SDS011;50118;53.232;8.252;2022-11-15T05:58:12;22.33;;;12.75;;
58242;SDS011;50118;53.232;8.252;2022-11-15T06:00:37;22.00;;;12.30;;
58242;SDS011;50118;53.232;8.252;2022-11-15T06:03:03;21.25;;;11.75;;
58242;SDS011;50118;53.232;8.252;2022-11-15T06:05:28;23.25;;;12.48;;
58242;SDS011;50118;53.232;8.252;2022-11-15T06:07:56;21.40;;;11.68;;
58242;SDS011;50118;53.232;8.252;2022-11-15T06:10:23;20.52;;;11.02;;
58242;SDS011;50118;53.232;8.252;2022-11-15T06:12:56;20.25;;;12.18;;
58242;SDS011;50118;53.232;8.252;2022-11-15T06:15:22;20.58;;;11.30;;
58242;SDS011;50118;53.232;8.252;2022-11-15T06:17:47;19.60;;;10.98;;
58242;SDS011;50118;53.232;8.252;2022-11-15T06:20:13;21.75;;;12.02;;
58242;SDS011;50118;53.232;8.252;2022-11-15T06:22:39;20.85;;;11.35;;
58242;SDS011;50118;53.232;8.252;2022-11-15T06:25:04;19.48;;;11.00;;
58242;SDS011;50118;53.232;8.252;2022-11-15T06:27:30;20.58;;;11.38;;
58242;SDS011;50118;53.232;8.252;2022-11-15T06:29:55;17.88;;;10.68;;
58242;SDS011;50118;53.232;8.252;2022-11-15T06:32:20;19.75;;;11.05;;
58242;SDS011;50118;53.232;8.252;2022-11-15T06:34:46;21.15;;;11.32;;
58242;SDS011;50118;53.232;8.252;2022-11-15T06:37:11;18.60;;;10.93;;
58242;SDS011;50118;53.232;8.252;2022-11-15T06:39:36;19.83;;;11.60;;
58242;SDS011;50118;53.232;8.252;2022-11-15T06:42:02;19.17;;;10.90;;
58242;SDS011;50118;53.232;8.252;2022-11-15T06:44:27;20.17;;;10.93;;
58242;SDS011;50118;53.232;8.252;2022-11-15T06:46:52;19.27;;;10.63;;
58242;SDS011;50118;53.232;8.252;2022-11-15T06:49:18;16.95;;;10.27;;
58242;SDS011;50118;53.232;8.252;2022-11-15T06:51:43;19.77;;;10.93;;
58242;SDS011;50118;53.232;8.252;2022-11-15T06:54:09;20.05;;;10.55;;
58242;SDS011;50118;53.232;8.252;2022-11-15T06:56:34;16.75;;;9.95;;
58242;SDS011;50118;53.232;8.252;2022-11-15T06:58:59;16.20;;;9.85;;
58242;SDS011;50118;53.232;8.252;2022-11-15T07:01:25;17.05;;;10.02;;
58242;SDS011;50118;53.232;8.252;2022-11-15T07:03:50;17.52;;;10.55;;
58242;SDS011;50118;53.232;8.252;2022-11-15T07:06:15;16.73;;;9.88;;
58242;SDS011;50118;53.232;8.252;2022-11-15T07:08:41;17.02;;;10.75;;
58242;SDS011;50118;53.232;8.252;2022-11-15T07:11:07;16.20;;;9.88;;
58242;SDS011;50118;53.232;8.252;2022-11-15T07:13:33;15.00;;;9.70;;
58242;SDS011;50118;53.232;8.252;2022-11-15T07:16:03;18.00;;;10.02;;
58242;SDS011;50118;53.232;8.252;2022-11-15T07:18:33;15.25;;;9.55;;
58242;SDS011;50118;53.232;8.252;2022-11-15T07:21:00;15.48;;;9.25;;
58242;SDS011;50118;53.232;8.252;2022-11-15T07:23:30;15.45;;;9.98;;
58242;SDS011;50118;53.232;8.252;2022-11-15T07:25:56;16.45;;;9.77;;
58242;SDS011;50118;53.232;8.252;2022-11-15T07:28:23;15.23;;;9.82;;
58242;SDS011;50118;53.232;8.252;2022-11-15T07:30:49;14.40;;;9.25;;
58242;SDS011;50118;53.232;8.252;2022-11-15T07:33:14;15.40;;;8.68;;
58242;SDS011;50118;53.232;8.252;2022-11-15T07:35:39;14.15;;;9.07;;
58242;SDS011;50118;53.232;8.252;2022-11-15T07:38:05;13.40;;;8.57;;
58242;SDS011;50118;53.232;8.252;2022-11-15T07:40:30;15.82;;;9.93;;
58242;SDS011;50118;53.232;8.252;2022-11-15T07:43:04;15.55;;;8.73;;
58242;SDS011;50118;53.232;8.252;2022-11-15T07:45:31;13.95;;;8.02;;
58242;SDS011;50118;53.232;8.252;2022-11-15T07:47:58;13.73;;;8.60;;
58242;SDS011;50118;53.232;8.252;2022-11-15T07:50:24;13.30;;;8.52;;
58242;SDS011;50118;53.232;8.252;2022-11-15T07:52:54;13.75;;;8.00;;
58242;SDS011;50118;53.232;8.252;2022-11-15T07:55:23;14.40;;;8.27;;
58242;SDS011;50118;53.232;8.252;2022-11-15T07:57:59;14.40;;;8.35;;
58242;SDS011;50118;53.232;8.252;2022-11-15T08:00:38;12.30;;;7.40;;
58242;SDS011;50118;53.232;8.252;2022-11-15T08:03:11;14.05;;;8.43;;
58242;SDS011;50118;53.232;8.252;2022-11-15T08:05:41;12.73;;;8.57;;
58242;SDS011;50118;53.232;8.252;2022-11-15T08:08:08;14.88;;;8.27;;
58242;SDS011;50118;53.232;8.252;2022-11-15T08:10:35;13.13;;;7.97;;
58242;SDS011;50118;53.232;8.252;2022-11-15T08:13:05;12.18;;;8.00;;
58242;SDS011;50118;53.232;8.252;2022-11-15T08:15:34;12.60;;;7.82;;
58242;SDS011;50118;53.232;8.252;2022-11-15T08:18:01;14.15;;;8.48;;
58242;SDS011;50118;53.232;8.252;2022-11-15T08:20:32;12.80;;;8.18;;
58242;SDS011;50118;53.232;8.252;2022-11-15T08:23:00;12.88;;;8.27;;
58242;SDS011;50118;53.232;8.252;2022-11-15T08:25:27;14.63;;;8.50;;
58242;SDS011;50118;53.232;8.252;2022-11-15T08:27:58;15.20;;;8.25;;
58242;SDS011;50118;53.232;8.252;2022-11-15T08:30:25;13.32;;;8.52;;
58242;SDS011;50118;53.232;8.252;2022-11-15T08:32:52;13.35;;;8.50;;
58242;SDS011;50118;53.232;8.252;2022-11-15T08:35:19;13.68;;;7.82;;
58242;SDS011;50118;53.232;8.252;2022-11-15T08:37:45;12.32;;;8.13;;
58242;SDS011;50118;53.232;8.252;2022-11-15T08:40:14;11.70;;;7.53;;
58242;SDS011;50118;53.232;8.252;2022-11-15T08:42:40;12.40;;;7.68;;
58242;SDS011;50118;53.232;8.252;2022-11-15T08:45:06;12.52;;;7.60;;
58242;SDS011;50118;53.232;8.252;2022-11-15T08:47:36;10.85;;;7.85;;
58242;SDS011;50118;53.232;8.252;2022-11-15T08:50:11;13.77;;;7.90;;
58242;SDS011;50118;53.232;8.252;2022-11-15T08:52:37;11.75;;;7.85;;
58242;SDS011;50118;53.232;8.252;2022-11-15T08:57:49;11.35;;;8.20;;
58242;SDS011;50118;53.232;8.252;2022-11-15T09:00:18;14.07;;;7.75;;
58242;SDS011;50118;53.232;8.252;2022-11-15T09:02:44;10.95;;;7.57;;
58242;SDS011;50118;53.232;8.252;2022-11-15T09:05:10;11.75;;;8.55;;
58242;SDS011;50118;53.232;8.252;2022-11-15T09:07:39;12.18;;;8.15;;
58242;SDS011;50118;53.232;8.252;2022-11-15T09:10:05;12.73;;;7.95;;
58242;SDS011;50118;53.232;8.252;2022-11-15T09:13:16;12.18;;;7.65;;
58242;SDS011;50118;53.232;8.252;2022-11-15T09:15:26;12.00;;;8.30;;
58242;SDS011;50118;53.232;8.252;2022-11-15T09:17:52;12.40;;;8.55;;
58242;SDS011;50118;53.232;8.252;2022-11-15T09:20:20;12.07;;;7.85;;
58242;SDS011;50118;53.232;8.252;2022-11-15T09:22:45;13.40;;;8.38;;
58242;SDS011;50118;53.232;8.252;2022-11-15T09:28:32;14.43;;;8.80;;
58242;SDS011;50118;53.232;8.252;2022-11-15T09:54:46;13.65;;;8.60;;
58242;SDS011;50118;53.232;8.252;2022-11-15T09:57:15;15.90;;;8.75;;
58242;SDS011;50118;53.232;8.252;2022-11-15T10:06:21;13.07;;;9.18;;
58242;SDS011;50118;53.232;8.252;2022-11-15T10:08:51;12.45;;;8.30;;
58242;SDS011;50118;53.232;8.252;2022-11-15T10:11:24;13.38;;;8.18;;
58242;SDS011;50118;53.232;8.252;2022-11-15T10:25:14;12.18;;;8.35;;
58242;SDS011;50118;53.232;8.252;2022-11-15T10:27:56;10.48;;;7.68;;
58242;SDS011;50118;53.232;8.252;2022-11-15T10:30:36;11.63;;;7.85;;
58242;SDS011;50118;53.232;8.252;2022-11-15T10:33:41;11.77;;;7.53;;
58242;SDS011;50118;53.232;8.252;2022-11-15T10:39:21;11.65;;;7.43;;
58242;SDS011;50118;53.232;8.252;2022-11-15T10:41:47;14.95;;;7.20;;
58242;SDS011;50118;53.232;8.252;2022-11-15T10:46:42;10.45;;;6.88;;
58242;SDS011;50118;53.232;8.252;2022-11-15T10:57:59;10.40;;;7.18;;
58242;SDS011;50118;53.232;8.252;2022-11-15T11:00:36;11.10;;;7.07;;
58242;SDS011;50118;53.232;8.252;2022-11-15T11:03:06;11.20;;;7.32;;
58242;SDS011;50118;53.232;8.252;2022-11-15T11:06:18;9.35;;;6.57;;
58242;SDS011;50118;53.232;8.252;2022-11-15T11:11:48;8.02;;;6.07;;
58242;SDS011;50118;53.232;8.252;2022-11-15T11:14:27;9.73;;;6.53;;
58242;SDS011;50118;53.232;8.252;2022-11-15T11:22:38;9.57;;;6.30;;
58242;SDS011;50118;53.232;8.252;2022-11-15T11:36:38;9.98;;;6.13;;
58242;SDS011;50118;53.232;8.252;2022-11-15T11:39:21;8.38;;;5.82;;
58242;SDS011;50118;53.232;8.252;2022-11-15T11:42:17;8.05;;;5.85;;
58242;SDS011;50118;53.232;8.252;2022-11-15T11:50:00;9.05;;;5.35;;
58242;SDS011;50118;53.232;8.252;2022-11-15T11:52:57;7.70;;;5.68;;
58242;SDS011;50118;53.232;8.252;2022-11-15T11:55:34;8.68;;;5.38;;
58242;SDS011;50118;53.232;8.252;2022-11-15T12:12:21;8.18;;;5.05;;
58242;SDS011;50118;53.232;8.252;2022-11-15T12:18:25;6.78;;;4.53;;
58242;SDS011;50118;53.232;8.252;2022-11-15T12:27:34;9.40;;;5.20;;
58242;SDS011;50118;53.232;8.252;2022-11-15T12:30:51;6.95;;;4.80;;
58242;SDS011;50118;53.232;8.252;2022-11-15T12:36:48;6.97;;;4.50;;
58242;SDS011;50118;53.232;8.252;2022-11-15T12:39:15;7.45;;;4.45;;
58242;SDS011;50118;53.232;8.252;2022-11-15T12:59:47;6.35;;;4.57;;
58242;SDS011;50118;53.232;8.252;2022-11-15T13:03:12;5.45;;;4.38;;
58242;SDS011;50118;53.232;8.252;2022-11-15T13:06:00;7.93;;;4.30;;
58242;SDS011;50118;53.232;8.252;2022-11-15T13:08:51;5.53;;;4.38;;
58242;SDS011;50118;53.232;8.252;2022-11-15T13:14:56;4.55;;;3.45;;
58242;SDS011;50118;53.232;8.252;2022-11-15T13:17:50;5.03;;;3.40;;
58242;SDS011;50118;53.232;8.252;2022-11-15T13:28:38;4.78;;;3.75;;
58242;SDS011;50118;53.232;8.252;2022-11-15T13:33:49;5.20;;;3.60;;
58242;SDS011;50118;53.232;8.252;2022-11-15T13:36:18;4.53;;;3.70;;
58242;SDS011;50118;53.232;8.252;2022-11-15T13:41:44;6.30;;;4.07;;
58242;SDS011;50118;53.232;8.252;2022-11-15T13:47:12;4.55;;;3.38;;
58242;SDS011;50118;53.232;8.252;2022-11-15T13:49:39;4.97;;;3.45;;
58242;SDS011;50118;53.232;8.252;2022-11-15T13:52:06;5.03;;;3.63;;
58242;SDS011;50118;53.232;8.252;2022-11-15T13:54:34;5.28;;;3.42;;
58242;SDS011;50118;53.232;8.252;2022-11-15T14:03:18;7.00;;;3.85;;
58242;SDS011;50118;53.232;8.252;2022-11-15T14:06:24;5.68;;;3.40;;
58242;SDS011;50118;53.232;8.252;2022-11-15T14:09:04;5.38;;;3.45;;
58242;SDS011;50118;53.232;8.252;2022-11-15T14:11:58;4.60;;;3.40;;
58242;SDS011;50118;53.232;8.252;2022-11-15T14:14:51;4.13;;;3.00;;
58242;SDS011;50118;53.232;8.252;2022-11-15T14:17:40;4.20;;;3.40;;
58242;SDS011;50118;53.232;8.252;2022-11-15T14:23:05;4.68;;;3.45;;
58242;SDS011;50118;53.232;8.252;2022-11-15T14:25:53;5.50;;;3.20;;
58242;SDS011;50118;53.232;8.252;2022-11-15T14:30:48;4.28;;;3.03;;
58242;SDS011;50118;53.232;8.252;2022-11-15T14:35:45;4.20;;;2.97;;
58242;SDS011;50118;53.232;8.252;2022-11-15T14:38:11;4.70;;;3.10;;
58242;SDS011;50118;53.232;8.252;2022-11-15T14:40:37;4.13;;;2.90;;
58242;SDS011;50118;53.232;8.252;2022-11-15T14:43:03;4.45;;;3.00;;
58242;SDS011;50118;53.232;8.252;2022-11-15T14:45:28;4.47;;;2.60;;
58242;SDS011;50118;53.232;8.252;2022-11-15T14:47:54;3.47;;;2.50;;
58242;SDS011;50118;53.232;8.252;2022-11-15T14:50:20;4.18;;;2.80;;
58242;SDS011;50118;53.232;8.252;2022-11-15T14:52:47;4.38;;;2.53;;
58242;SDS011;50118;53.232;8.252;2022-11-15T14:55:44;4.95;;;2.30;;
58242;SDS011;50118;53.232;8.252;2022-11-15T14:58:12;2.90;;;2.20;;
58242;SDS011;50118;53.232;8.252;2022-11-15T15:03:50;3.35;;;2.45;;
58242;SDS011;50118;53.232;8.252;2022-11-15T15:06:17;2.90;;;2.30;;
58242;SDS011;50118;53.232;8.252;2022-11-15T15:08:46;5.97;;;2.60;;
58242;SDS011;50118;53.232;8.252;2022-11-15T15:11:33;5.00;;;2.97;;
58242;SDS011;50118;53.232;8.252;2022-11-15T15:14:19;4.68;;;2.80;;
58242;SDS011;50118;53.232;8.252;2022-11-15T15:16:48;5.28;;;2.70;;
58242;SDS011;50118;53.232;8.252;2022-11-15T15:22:11;8.30;;;4.32;;
58242;SDS011;50118;53.232;8.252;2022-11-15T15:24:39;10.02;;;5.30;;
58242;SDS011;50118;53.232;8.252;2022-11-15T15:27:04;9.38;;;4.90;;
58242;SDS011;50118;53.232;8.252;2022-11-15T15:29:30;17.52;;;7.72;;
58242;SDS011;50118;53.232;8.252;2022-11-15T15:31:55;9.45;;;5.97;;
58242;SDS011;50118;53.232;8.252;2022-11-15T15:34:21;12.13;;;6.60;;
58242;SDS011;50118;53.232;8.252;2022-11-15T15:36:46;7.97;;;4.60;;
58242;SDS011;50118;53.232;8.252;2022-11-15T15:39:11;8.77;;;4.65;;
58242;SDS011;50118;53.232;8.252;2022-11-15T15:41:37;16.10;;;5.30;;
58242;SDS011;50118;53.232;8.252;2022-11-15T15:44:02;10.25;;;4.10;;
58242;SDS011;50118;53.232;8.252;2022-11-15T15:46:28;7.78;;;4.50;;
58242;SDS011;50118;53.232;8.252;2022-11-15T15:48:53;7.20;;;4.18;;
58242;SDS011;50118;53.232;8.252;2022-11-15T15:51:18;7.97;;;4.13;;
58242;SDS011;50118;53.232;8.252;2022-11-15T15:53:44;6.82;;;4.50;;
58242;SDS011;50118;53.232;8.252;2022-11-15T15:56:09;8.18;;;4.35;;
58242;SDS011;50118;53.232;8.252;2022-11-15T15:58:35;6.50;;;4.03;;
58242;SDS011;50118;53.232;8.252;2022-11-15T16:01:00;6.75;;;4.20;;
58242;SDS011;50118;53.232;8.252;2022-11-15T16:03:26;7.18;;;4.40;;
58242;SDS011;50118;53.232;8.252;2022-11-15T16:05:52;6.72;;;4.25;;
58242;SDS011;50118;53.232;8.252;2022-11-15T16:08:19;8.60;;;4.25;;
58242;SDS011;50118;53.232;8.252;2022-11-15T16:10:45;7.18;;;4.20;;
58242;SDS011;50118;53.232;8.252;2022-11-15T16:13:11;5.85;;;4.10;;
58242;SDS011;50118;53.232;8.252;2022-11-15T16:15:37;8.70;;;5.63;;
58242;SDS011;50118;53.232;8.252;2022-11-15T16:18:03;7.80;;;5.00;;
58242;SDS011;50118;53.232;8.252;2022-11-15T16:22:57;8.82;;;5.40;;
58242;SDS011;50118;53.232;8.252;2022-11-15T16:25:23;8.00;;;5.30;;
58242;SDS011;50118;53.232;8.252;2022-11-15T16:27:49;8.77;;;5.07;;
58242;SDS011;50118;53.232;8.252;2022-11-15T16:30:16;8.70;;;5.82;;
58242;SDS011;50118;53.232;8.252;2022-11-15T16:32:43;10.13;;;6.70;;
58242;SDS011;50118;53.232;8.252;2022-11-15T16:35:10;6.97;;;5.22;;
58242;SDS011;50118;53.232;8.252;2022-11-15T16:37:37;6.80;;;5.13;;
58242;SDS011;50118;53.232;8.252;2022-11-15T16:40:05;6.75;;;4.60;;
58242;SDS011;50118;53.232;8.252;2022-11-15T16:42:42;7.85;;;4.55;;
58242;SDS011;50118;53.232;8.252;2022-11-15T16:45:10;8.18;;;5.60;;
58242;SDS011;50118;53.232;8.252;2022-11-15T16:47:36;9.60;;;5.78;;
58242;SDS011;50118;53.232;8.252;2022-11-15T16:50:02;6.78;;;4.82;;
58242;SDS011;50118;53.232;8.252;2022-11-15T16:52:27;8.32;;;4.97;;
58242;SDS011;50118;53.232;8.252;2022-11-15T16:54:53;6.78;;;4.07;;
58242;SDS011;50118;53.232;8.252;2022-11-15T16:57:18;6.82;;;3.90;;
58242;SDS011;50118;53.232;8.252;2022-11-15T16:59:43;8.05;;;4.80;;
58242;SDS011;50118;53.232;8.252;2022-11-15T17:02:12;9.88;;;6.50;;
58242;SDS011;50118;53.232;8.252;2022-11-15T17:04:37;12.82;;;9.98;;
58242;SDS011;50118;53.232;8.252;2022-11-15T17:07:03;10.23;;;8.43;;
58242;SDS011;50118;53.232;8.252;2022-11-15T17:09:28;10.25;;;6.50;;
58242;SDS011;50118;53.232;8.252;2022-11-15T17:11:54;11.25;;;8.00;;
58242;SDS011;50118;53.232;8.252;2022-11-15T17:14:20;10.38;;;7.75;;
58242;SDS011;50118;53.232;8.252;2022-11-15T17:16:45;8.07;;;5.00;;
58242;SDS011;50118;53.232;8.252;2022-11-15T17:19:15;11.88;;;8.70;;
58242;SDS011;50118;53.232;8.252;2022-11-15T17:21:42;15.57;;;8.18;;
58242;SDS011;50118;53.232;8.252;2022-11-15T17:24:07;8.35;;;6.18;;
58242;SDS011;50118;53.232;8.252;2022-11-15T17:26:34;17.02;;;12.50;;
58242;SDS011;50118;53.232;8.252;2022-11-15T17:28:59;7.15;;;4.90;;
58242;SDS011;50118;53.232;8.252;2022-11-15T17:31:25;7.75;;;5.00;;
58242;SDS011;50118;53.232;8.252;2022-11-15T17:33:51;9.07;;;6.57;;
58242;SDS011;50118;53.232;8.252;2022-11-15T17:36:17;21.25;;;12.10;;
58242;SDS011;50118;53.232;8.252;2022-11-15T17:38:43;11.18;;;6.85;;
58242;SDS011;50118;53.232;8.252;2022-11-15T17:41:14;9.70;;;5.55;;
58242;SDS011;50118;53.232;8.252;2022-11-15T17:43:40;10.25;;;5.97;;
58242;SDS011;50118;53.232;8.252;2022-11-15T17:46:06;9.07;;;4.70;;
58242;SDS011;50118;53.232;8.252;2022-11-15T17:48:33;8.23;;;4.80;;
58242;SDS011;50118;53.232;8.252;2022-11-15T17:51:00;8.38;;;4.65;;
58242;SDS011;50118;53.232;8.252;2022-11-15T17:53:27;9.35;;;5.18;;
58242;SDS011;50118;53.232;8.252;2022-11-15T17:55:59;7.80;;;5.47;;
58242;SDS011;50118;53.232;8.252;2022-11-15T17:58:28;8.32;;;5.22;;
58242;SDS011;50118;53.232;8.252;2022-11-15T18:00:54;7.35;;;4.70;;
58242;SDS011;50118;53.232;8.252;2022-11-15T18:03:20;6.80;;;4.88;;
58242;SDS011;50118;53.232;8.252;2022-11-15T18:05:45;6.90;;;4.82;;
58242;SDS011;50118;53.232;8.252;2022-11-15T18:08:11;8.02;;;5.03;;
58242;SDS011;50118;53.232;8.252;2022-11-15T18:10:40;8.98;;;5.30;;
58242;SDS011;50118;53.232;8.252;2022-11-15T18:13:06;7.60;;;5.20;;
58242;SDS011;50118;53.232;8.252;2022-11-15T18:15:31;9.00;;;5.43;;
58242;SDS011;50118;53.232;8.252;2022-11-15T18:17:57;7.95;;;5.22;;
58242;SDS011;50118;53.232;8.252;2022-11-15T18:20:22;7.00;;;5.30;;
58242;SDS011;50118;53.232;8.252;2022-11-15T18:22:48;9.13;;;4.97;;
58242;SDS011;50118;53.232;8.252;2022-11-15T18:25:17;7.55;;;5.50;;
58242;SDS011;50118;53.232;8.252;2022-11-15T18:27:42;8.10;;;5.38;;